createdAt,value
2023-03-19T00:00:53.180Z,51.32
2023-03-19T00:03:41.627Z,51.31
2023-03-19T00:06:09.347Z,51.69
2023-03-19T00:08:37.153Z,51.50
2023-03-19T00:11:09.890Z,52.33
2023-03-19T00:13:38.225Z,52.18
2023-03-19T00:16:07.772Z,51.68
2023-03-19T00:18:36.336Z,51.96
2023-03-19T00:21:04.262Z,52.04
2023-03-19T00:23:32.013Z,52.49
2023-03-19T00:25:59.656Z,52.59
2023-03-19T00:28:28.053Z,52.51
2023-03-19T00:30:55.817Z,52.94
2023-03-19T00:33:23.981Z,52.92
2023-03-19T00:35:53.243Z,53.28
2023-03-19T00:38:21.196Z,53.20
2023-03-19T00:40:49.005Z,53.39
2023-03-19T00:43:16.807Z,54.22
2023-03-19T00:45:44.416Z,54.25
2023-03-19T00:48:12.519Z,54.49
2023-03-19T00:50:40.456Z,54.24
2023-03-19T00:53:08.352Z,54.37
2023-03-19T00:55:36.675Z,54.16
2023-03-19T00:58:06.567Z,54.51
2023-03-19T01:00:37.428Z,54.15
2023-03-19T01:03:06.518Z,54.26
2023-03-19T01:08:04.935Z,54.92
2023-03-19T01:10:34.837Z,54.96
2023-03-19T01:13:03.835Z,55.10
2023-03-19T01:15:31.984Z,55.14
2023-03-19T01:18:00.008Z,55.16
2023-03-19T01:20:27.565Z,55.32
2023-03-19T01:22:56.070Z,55.57
2023-03-19T01:25:23.775Z,56.27
2023-03-19T01:28:02.919Z,56.02
2023-03-19T01:30:30.659Z,56.17
2023-03-19T01:33:23.732Z,56.17
2023-03-19T01:36:05.560Z,56.19
2023-03-19T01:38:52.874Z,56.68
2023-03-19T01:41:21.035Z,56.87
2023-03-19T01:43:50.680Z,56.82
2023-03-19T01:46:47.801Z,57.21
2023-03-19T01:49:40.461Z,57.50
2023-03-19T01:52:17.335Z,57.38
2023-03-19T01:55:09.170Z,57.67
2023-03-19T01:58:04.508Z,57.46
2023-03-19T02:01:01.348Z,57.50
2023-03-19T02:03:29.993Z,57.91
2023-03-19T02:06:13.577Z,57.52
2023-03-19T02:08:42.279Z,58.26
2023-03-19T02:11:10.589Z,58.33
2023-03-19T02:13:38.825Z,58.16
2023-03-19T02:16:07.404Z,57.82
2023-03-19T02:18:36.259Z,58.11
2023-03-19T02:21:07.537Z,57.98
2023-03-19T02:23:53.244Z,57.98
2023-03-19T02:26:30.898Z,58.16
2023-03-19T02:29:04.237Z,58.14
2023-03-19T02:31:35.884Z,58.33
2023-03-19T02:34:28.633Z,58.28
2023-03-19T02:37:04.043Z,58.59
2023-03-19T02:39:52.863Z,58.88
2023-03-19T02:42:24.245Z,59.08
2023-03-19T02:44:51.962Z,59.14
2023-03-19T02:47:20.535Z,59.25
2023-03-19T02:49:48.151Z,59.19
2023-03-19T02:52:17.439Z,59.35
2023-03-19T02:54:44.988Z,59.84
2023-03-19T02:57:13.159Z,60.05
2023-03-19T02:59:40.914Z,60.11
2023-03-19T03:02:10.207Z,59.76
2023-03-19T03:04:37.820Z,60.25
2023-03-19T03:07:06.233Z,60.75
2023-03-19T03:09:34.179Z,60.45
2023-03-19T03:12:02.190Z,60.10
2023-03-19T03:14:29.868Z,60.64
2023-03-19T03:16:58.707Z,60.19
2023-03-19T03:19:26.521Z,60.64
2023-03-19T03:21:54.322Z,60.70
2023-03-19T03:24:22.181Z,61.18
2023-03-19T03:26:50.003Z,60.80
2023-03-19T03:29:18.218Z,61.17
2023-03-19T03:31:46.290Z,61.90
2023-03-19T03:34:13.933Z,61.55
2023-03-19T03:36:42.178Z,61.52
2023-03-19T03:39:09.801Z,61.61
2023-03-19T03:41:37.618Z,61.48
2023-03-19T03:44:05.802Z,62.34
2023-03-19T03:46:36.802Z,61.91
2023-03-19T03:49:04.429Z,61.92
2023-03-19T03:51:32.951Z,61.88
2023-03-19T03:54:01.153Z,61.49
2023-03-19T03:56:29.169Z,61.53
2023-03-19T03:58:56.785Z,61.65
2023-03-19T04:01:24.677Z,61.93
2023-03-19T04:03:56.294Z,61.69
2023-03-19T04:06:25.069Z,61.80
2023-03-19T04:09:13.016Z,61.90
2023-03-19T04:11:42.296Z,62.57
2023-03-19T04:14:09.891Z,62.04
2023-03-19T04:16:39.669Z,62.32
2023-03-19T04:19:07.756Z,62.21
2023-03-19T04:21:35.899Z,62.44
2023-03-19T04:24:04.120Z,62.21
2023-03-19T04:26:32.105Z,62.81
2023-03-19T04:28:59.758Z,62.52
2023-03-19T04:31:28.626Z,62.35
2023-03-19T04:33:56.275Z,62.72
2023-03-19T04:36:24.209Z,62.90
2023-03-19T04:38:52.633Z,63.11
2023-03-19T04:41:21.443Z,63.61
2023-03-19T04:44:20.272Z,63.97
2023-03-19T04:46:48.175Z,63.94
2023-03-19T04:49:18.024Z,63.83
2023-03-19T04:51:46.558Z,64.50
2023-03-19T04:54:14.359Z,64.79
2023-03-19T04:56:42.619Z,64.99
2023-03-19T04:59:10.607Z,64.98
2023-03-19T05:01:38.464Z,65.28
2023-03-19T05:04:09.078Z,64.87
2023-03-19T05:06:40.019Z,64.95
2023-03-19T05:09:07.869Z,65.59
2023-03-19T05:11:36.103Z,65.70
2023-03-19T05:14:07.150Z,65.86
2023-03-19T05:16:55.049Z,65.59
2023-03-19T05:19:23.229Z,65.57
2023-03-19T05:21:51.600Z,65.39
2023-03-19T05:24:25.230Z,65.41
2023-03-19T05:26:54.435Z,65.55
2023-03-19T05:29:42.675Z,64.58
2023-03-19T05:32:30.844Z,64.18
2023-03-19T05:35:01.933Z,60.34
2023-03-19T05:37:30.298Z,57.51
2023-03-19T05:39:59.921Z,54.64
2023-03-19T05:42:27.794Z,53.75
2023-03-19T05:44:58.164Z,51.39
2023-03-19T05:47:29.087Z,48.78
2023-03-19T05:49:58.612Z,47.07
2023-03-19T05:52:26.642Z,46.22
2023-03-19T05:54:57.824Z,44.48
2023-03-19T05:57:36.698Z,42.71
2023-03-19T06:00:16.064Z,42.24
2023-03-19T06:02:44.754Z,40.98
2023-03-19T06:05:28.298Z,40.57
2023-03-19T06:08:00.964Z,39.83
2023-03-19T06:10:37.846Z,37.48
2023-03-19T06:13:10.743Z,35.90
2023-03-19T06:15:42.034Z,35.25
2023-03-19T06:18:39.269Z,35.20
2023-03-19T06:21:10.600Z,34.28
2023-03-19T06:23:38.606Z,33.51
2023-03-19T06:26:07.942Z,34.43
2023-03-19T06:28:43.957Z,34.35
2023-03-19T06:31:11.653Z,34.97
2023-03-19T06:33:55.314Z,35.28
2023-03-19T06:36:27.111Z,35.46
2023-03-19T06:38:55.607Z,35.51
2023-03-19T06:41:24.790Z,35.67
2023-03-19T06:43:53.355Z,35.20
2023-03-19T06:46:21.228Z,35.17
2023-03-19T06:48:49.050Z,33.65
2023-03-19T06:51:16.679Z,33.33
2023-03-19T06:53:44.458Z,33.79
2023-03-19T06:56:12.437Z,33.52
2023-03-19T06:58:40.425Z,32.96
2023-03-19T07:01:09.101Z,31.58
2023-03-19T07:03:37.208Z,30.92
2023-03-19T07:06:05.009Z,29.52
2023-03-19T07:08:32.991Z,28.56
2023-03-19T07:11:07.631Z,28.28
2023-03-19T07:13:36.008Z,28.48
2023-03-19T07:16:03.763Z,28.40
2023-03-19T07:18:31.654Z,28.72
2023-03-19T07:20:59.205Z,28.68
2023-03-19T07:23:27.066Z,28.90
2023-03-19T07:25:54.746Z,28.98
2023-03-19T07:28:23.138Z,29.33
2023-03-19T07:30:53.350Z,29.81
2023-03-19T07:33:22.068Z,30.14
2023-03-19T07:35:49.766Z,30.14
2023-03-19T07:38:17.860Z,30.38
2023-03-19T07:40:54.795Z,30.97
2023-03-19T07:43:29.108Z,31.10
2023-03-19T07:45:56.677Z,30.67
2023-03-19T07:48:24.740Z,30.19
2023-03-19T07:50:52.924Z,29.98
2023-03-19T07:53:20.984Z,29.00
2023-03-19T07:55:49.135Z,28.00
2023-03-19T07:58:17.094Z,26.16
2023-03-19T08:00:45.246Z,24.79
2023-03-19T08:03:13.212Z,23.43
2023-03-19T08:05:40.863Z,22.36
2023-03-19T08:08:08.733Z,21.72
2023-03-19T08:10:38.406Z,21.17
2023-03-19T08:13:06.972Z,20.44
2023-03-19T08:15:34.870Z,19.77
2023-03-19T08:18:04.992Z,19.26
2023-03-19T08:20:33.686Z,19.11
2023-03-19T08:23:01.665Z,18.87
2023-03-19T08:25:32.532Z,19.02
2023-03-19T08:28:01.671Z,18.60
2023-03-19T08:30:29.259Z,18.51
2023-03-19T08:32:57.318Z,18.66
2023-03-19T08:35:28.631Z,18.33
2023-03-19T08:37:57.062Z,18.25
2023-03-19T08:40:24.905Z,18.57
2023-03-19T08:42:53.648Z,18.48
2023-03-19T08:45:21.918Z,18.71
2023-03-19T08:47:50.557Z,18.75
2023-03-19T08:50:18.865Z,19.34
2023-03-19T08:52:46.871Z,19.45
2023-03-19T08:55:14.454Z,19.68
2023-03-19T08:57:42.353Z,20.04
2023-03-19T09:00:11.074Z,20.60
2023-03-19T09:02:40.346Z,20.76
2023-03-19T09:05:08.530Z,21.66
2023-03-19T09:07:36.607Z,21.86
2023-03-19T09:10:04.537Z,22.01
2023-03-19T09:12:32.971Z,22.11
2023-03-19T09:15:00.509Z,22.37
2023-03-19T09:17:28.408Z,21.81
2023-03-19T09:19:55.977Z,21.47
2023-03-19T09:22:23.839Z,20.77
2023-03-19T09:24:51.673Z,20.35
2023-03-19T09:27:20.645Z,19.90
2023-03-19T09:29:48.252Z,20.52
2023-03-19T09:32:16.218Z,20.68
2023-03-19T09:34:44.105Z,21.03
2023-03-19T09:37:12.003Z,21.28
2023-03-19T09:39:39.595Z,22.05
2023-03-19T09:42:45.954Z,22.13
2023-03-19T09:45:16.704Z,22.18
2023-03-19T09:47:47.482Z,22.00
2023-03-19T09:50:18.418Z,21.92
2023-03-19T09:53:04.076Z,22.00
2023-03-19T09:55:48.116Z,22.15
2023-03-19T09:58:17.757Z,22.37
2023-03-19T10:00:51.381Z,22.01
2023-03-19T10:03:35.556Z,22.26
2023-03-19T10:06:21.320Z,23.05
2023-03-19T10:09:41.341Z,23.10
2023-03-19T10:12:30.132Z,23.53
2023-03-19T10:15:19.791Z,23.60
2023-03-19T10:18:02.912Z,23.38
2023-03-19T10:20:46.284Z,23.84
2023-03-19T10:23:34.713Z,23.55
2023-03-19T10:26:05.809Z,23.50
2023-03-19T10:28:33.522Z,24.07
2023-03-19T10:31:22.589Z,25.00
2023-03-19T10:34:12.257Z,25.78
2023-03-19T10:36:40.179Z,26.18
2023-03-19T10:39:07.968Z,26.76
2023-03-19T10:41:42.091Z,26.95
2023-03-19T10:44:48.594Z,27.29
2023-03-19T10:47:20.053Z,28.09
2023-03-19T10:49:49.787Z,27.70
2023-03-19T10:52:24.781Z,27.73
2023-03-19T10:54:57.376Z,28.02
2023-03-19T10:57:31.918Z,28.13
2023-03-19T11:00:22.693Z,28.43
2023-03-19T11:02:56.179Z,28.40
2023-03-19T11:05:29.884Z,28.42
2023-03-19T11:08:05.400Z,28.38
2023-03-19T11:10:36.061Z,28.36
2023-03-19T11:13:27.218Z,27.97
2023-03-19T11:15:59.499Z,28.06
2023-03-19T11:18:37.139Z,27.86
2023-03-19T11:21:30.257Z,28.47
2023-03-19T11:24:04.301Z,28.81
2023-03-19T11:26:32.495Z,28.94
2023-03-19T11:29:05.141Z,29.10
2023-03-19T11:31:47.010Z,28.59
2023-03-19T11:34:34.216Z,28.47
2023-03-19T11:37:18.335Z,28.75
2023-03-19T11:40:00.505Z,28.95
2023-03-19T11:42:45.181Z,28.39
2023-03-19T11:45:42.309Z,28.69
2023-03-19T11:48:25.786Z,28.40
2023-03-19T11:51:16.732Z,28.74
2023-03-19T11:54:03.196Z,28.99
2023-03-19T11:56:48.125Z,29.37
2023-03-19T11:59:45.100Z,29.38
2023-03-19T12:02:46.919Z,29.45
2023-03-19T12:05:36.918Z,29.45
2023-03-19T12:08:07.556Z,29.24
2023-03-19T12:11:02.028Z,29.44
2023-03-19T12:13:34.279Z,28.85
2023-03-19T12:16:15.932Z,28.57
2023-03-19T12:19:05.464Z,28.78
2023-03-19T12:21:59.350Z,28.84
2023-03-19T12:25:01.931Z,28.95
2023-03-19T12:27:48.355Z,29.50
2023-03-19T12:30:39.787Z,29.11
2023-03-19T12:33:26.167Z,29.46
2023-03-19T12:35:56.795Z,29.46
2023-03-19T12:38:31.059Z,29.21
2023-03-19T12:41:13.035Z,29.46
2023-03-19T12:44:05.974Z,29.41
2023-03-19T12:47:02.287Z,29.14
2023-03-19T12:49:46.351Z,28.83
2023-03-19T12:52:44.001Z,29.19
2023-03-19T12:55:40.848Z,29.03
2023-03-19T12:58:32.521Z,28.76
2023-03-19T13:01:19.052Z,28.95
2023-03-19T13:04:15.181Z,28.65
2023-03-19T13:07:00.778Z,28.86
2023-03-19T13:09:43.592Z,29.13
2023-03-19T13:12:19.139Z,29.02
2023-03-19T13:15:16.583Z,28.72
2023-03-19T13:18:02.000Z,28.45
2023-03-19T13:20:33.128Z,28.75
2023-03-19T13:23:04.674Z,28.45
2023-03-19T13:25:38.706Z,28.49
2023-03-19T13:28:21.050Z,28.69
2023-03-19T13:31:17.624Z,29.09
2023-03-19T13:34:04.279Z,29.08
2023-03-19T13:36:38.324Z,29.15
2023-03-19T13:39:18.294Z,29.17
2023-03-19T13:41:54.855Z,29.55
2023-03-19T13:44:22.418Z,29.43
2023-03-19T13:46:51.426Z,29.52
2023-03-19T13:49:33.938Z,29.57
2023-03-19T13:52:12.491Z,29.83
2023-03-19T13:54:43.573Z,29.57
2023-03-19T13:57:14.657Z,29.53
2023-03-19T13:59:44.972Z,29.83
2023-03-19T14:02:25.590Z,29.83
2023-03-19T14:05:19.614Z,29.93
2023-03-19T14:07:54.946Z,30.09
2023-03-19T14:10:31.275Z,30.24
2023-03-19T14:13:10.148Z,30.47
2023-03-19T14:15:47.779Z,30.29
2023-03-19T14:18:21.174Z,30.43
2023-03-19T14:21:01.102Z,30.59
2023-03-19T14:23:41.219Z,30.66
2023-03-19T14:26:17.935Z,30.89
2023-03-19T14:29:06.244Z,30.99
2023-03-19T14:31:55.925Z,31.22
2023-03-19T14:34:43.993Z,31.20
2023-03-19T14:37:17.669Z,31.47
2023-03-19T14:39:50.352Z,31.68
2023-03-19T14:42:28.125Z,31.37
2023-03-19T14:45:14.898Z,31.49
2023-03-19T14:48:04.411Z,31.47
2023-03-19T14:50:54.169Z,31.16
2023-03-19T14:53:37.284Z,31.56
2023-03-19T14:56:35.852Z,31.50
2023-03-19T14:59:06.451Z,31.63
2023-03-19T15:01:41.559Z,31.61
2023-03-19T15:04:15.852Z,31.81
2023-03-19T15:06:51.168Z,32.07
2023-03-19T15:09:31.249Z,31.98
2023-03-19T15:12:07.972Z,32.28
2023-03-19T15:15:03.654Z,32.15
2023-03-19T15:17:32.538Z,32.12
2023-03-19T15:20:03.145Z,32.50
2023-03-19T15:22:33.627Z,32.72
2023-03-19T15:25:15.163Z,32.62
2023-03-19T15:27:43.093Z,32.82
2023-03-19T15:30:28.807Z,33.22
2023-03-19T15:33:10.535Z,33.67
2023-03-19T15:35:42.969Z,33.55
2023-03-19T15:38:15.315Z,33.53
2023-03-19T15:40:43.477Z,33.62
2023-03-19T15:43:13.622Z,34.12
2023-03-19T15:45:46.727Z,34.11
2023-03-19T15:48:28.279Z,34.43
2023-03-19T15:51:02.298Z,34.53
2023-03-19T15:53:33.293Z,34.79
2023-03-19T15:56:02.948Z,34.87
2023-03-19T15:58:37.122Z,35.27
2023-03-19T16:01:09.696Z,35.50
2023-03-19T16:03:55.386Z,35.91
2023-03-19T16:06:28.583Z,36.09
2023-03-19T16:09:07.090Z,36.38
2023-03-19T16:11:37.657Z,36.66
2023-03-19T16:14:19.086Z,36.75
2023-03-19T16:16:47.637Z,37.12
2023-03-19T16:19:36.304Z,37.31
2023-03-19T16:22:21.035Z,37.47
2023-03-19T16:24:51.740Z,37.73
2023-03-19T16:27:22.049Z,38.07
2023-03-19T16:30:00.801Z,38.22
2023-03-19T16:32:30.566Z,38.32
2023-03-19T16:35:05.043Z,38.41
2023-03-19T16:37:38.690Z,38.97
2023-03-19T16:40:12.456Z,39.16
2023-03-19T16:42:44.197Z,39.65
2023-03-19T16:45:19.729Z,40.33
2023-03-19T16:47:52.442Z,40.87
2023-03-19T16:50:26.541Z,41.13
2023-03-19T16:52:54.161Z,42.02
2023-03-19T16:55:27.786Z,42.47
2023-03-19T16:58:36.511Z,43.11
2023-03-19T17:01:25.642Z,43.61
2023-03-19T17:03:54.082Z,44.18
2023-03-19T17:06:22.807Z,44.92
2023-03-19T17:08:50.406Z,45.41
2023-03-19T17:11:28.292Z,45.71
2023-03-19T17:13:58.965Z,46.21
2023-03-19T17:16:28.236Z,46.53
2023-03-19T17:18:56.810Z,47.04
2023-03-19T17:21:33.279Z,46.85
2023-03-19T17:24:14.844Z,47.01
2023-03-19T17:26:42.739Z,47.75
2023-03-19T17:29:10.461Z,48.08
2023-03-19T17:31:38.496Z,48.22
2023-03-19T17:34:12.450Z,48.96
2023-03-19T17:36:40.679Z,49.02
2023-03-19T17:39:11.600Z,49.34
2023-03-19T17:41:40.008Z,49.63
2023-03-19T17:44:07.686Z,50.04
2023-03-19T17:46:41.628Z,50.35
2023-03-19T17:49:18.102Z,50.97
2023-03-19T17:51:46.177Z,51.08
2023-03-19T17:54:13.841Z,51.30
2023-03-19T17:56:43.426Z,51.87
2023-03-19T17:59:11.501Z,52.30
2023-03-19T18:01:47.133Z,52.60
2023-03-19T18:04:17.555Z,52.98
2023-03-19T18:06:52.051Z,53.05
2023-03-19T18:09:23.542Z,53.53
2023-03-19T18:11:51.858Z,52.93
2023-03-19T18:14:19.630Z,52.87
2023-03-19T18:16:48.052Z,52.85
2023-03-19T18:19:37.258Z,52.41
2023-03-19T18:22:16.815Z,52.65
2023-03-19T18:24:44.955Z,52.39
2023-03-19T18:27:13.985Z,52.51
2023-03-19T18:29:41.734Z,52.68
2023-03-19T18:32:18.540Z,52.32
2023-03-19T18:34:46.239Z,52.48
2023-03-19T18:37:17.941Z,52.45
2023-03-19T18:39:45.931Z,52.35
2023-03-19T18:42:14.695Z,52.18
2023-03-19T18:44:43.015Z,51.95
2023-03-19T18:47:15.846Z,52.29
2023-03-19T18:49:44.668Z,52.31
2023-03-19T18:52:18.680Z,52.67
2023-03-19T18:54:47.169Z,53.19
2023-03-19T18:57:16.478Z,53.29
2023-03-19T18:59:44.352Z,53.41
2023-03-19T19:02:37.402Z,53.27
2023-03-19T19:05:05.579Z,53.44
2023-03-19T19:07:33.405Z,53.59
2023-03-19T19:10:00.992Z,53.53
2023-03-19T19:12:28.841Z,53.67
2023-03-19T19:15:05.162Z,53.70
2023-03-19T19:17:35.102Z,54.19
2023-03-19T19:20:02.709Z,54.42
2023-03-19T19:22:30.717Z,54.60
2023-03-19T19:24:58.324Z,54.45
2023-03-19T19:27:26.760Z,55.07
2023-03-19T19:29:54.709Z,55.15
2023-03-19T19:32:30.689Z,55.52
2023-03-19T19:34:58.459Z,55.43
2023-03-19T19:37:26.255Z,55.66
2023-03-19T19:39:53.881Z,55.82
2023-03-19T19:42:23.335Z,55.86
2023-03-19T19:44:58.803Z,56.35
2023-03-19T19:47:27.702Z,56.69
2023-03-19T19:49:56.449Z,56.99
2023-03-19T19:52:24.364Z,56.47
2023-03-19T19:54:52.491Z,56.11
2023-03-19T19:57:23.125Z,56.21
2023-03-19T19:59:55.615Z,55.94
2023-03-19T20:02:28.927Z,55.48
2023-03-19T20:04:57.934Z,55.35
2023-03-19T20:07:25.748Z,55.60
2023-03-19T20:09:53.328Z,55.43
2023-03-19T20:12:30.961Z,55.61
2023-03-19T20:14:58.859Z,55.49
2023-03-19T20:17:27.409Z,55.68
2023-03-19T20:19:55.279Z,55.40
2023-03-19T20:22:23.084Z,55.36
2023-03-19T20:24:51.620Z,55.14
2023-03-19T20:27:31.050Z,54.63
2023-03-19T20:29:59.124Z,55.02
2023-03-19T20:32:33.917Z,54.78
2023-03-19T20:35:02.198Z,55.26
2023-03-19T20:37:30.810Z,55.56
2023-03-19T20:39:58.779Z,55.77
2023-03-19T20:42:30.275Z,56.37
2023-03-19T20:44:59.702Z,56.76
2023-03-19T20:47:28.360Z,56.84
2023-03-19T20:49:56.308Z,57.35
2023-03-19T20:52:24.094Z,57.65
2023-03-19T20:54:52.712Z,57.95
2023-03-19T20:57:29.178Z,58.12
2023-03-19T20:59:57.298Z,58.37
2023-03-19T21:02:26.389Z,58.81
2023-03-19T21:04:54.086Z,59.25
2023-03-19T21:07:34.532Z,59.65
2023-03-19T21:10:11.837Z,59.70
2023-03-19T21:12:39.679Z,60.17
2023-03-19T21:15:13.016Z,60.72
2023-03-19T21:17:41.242Z,61.38
2023-03-19T21:20:16.034Z,61.92
2023-03-19T21:22:44.778Z,62.11
2023-03-19T21:25:19.932Z,62.75
2023-03-19T21:27:52.237Z,62.81
2023-03-19T21:30:21.784Z,63.19
2023-03-19T21:32:50.152Z,63.43
2023-03-19T21:35:24.152Z,63.89
2023-03-19T21:37:53.052Z,64.40
2023-03-19T21:40:25.862Z,64.86
2023-03-19T21:42:57.935Z,65.36
2023-03-19T21:45:36.408Z,66.20
2023-03-19T21:48:22.759Z,66.57
2023-03-19T21:50:50.455Z,66.96
2023-03-19T21:53:19.482Z,67.16
2023-03-19T21:55:47.878Z,67.59
2023-03-19T21:58:18.092Z,67.67
2023-03-19T22:00:46.291Z,68.10
2023-03-19T22:03:18.561Z,68.06
2023-03-19T22:05:48.414Z,68.52
2023-03-19T22:08:18.126Z,69.06
2023-03-19T22:10:46.967Z,69.31
2023-03-19T22:13:23.981Z,69.46
2023-03-19T22:15:54.347Z,69.52
2023-03-19T22:18:22.748Z,69.79
2023-03-19T22:20:51.089Z,69.66
2023-03-19T22:23:20.517Z,69.69
2023-03-19T22:25:53.181Z,70.25
2023-03-19T22:28:32.442Z,70.26
2023-03-19T22:31:02.938Z,70.29
2023-03-19T22:33:30.959Z,71.35
2023-03-19T22:35:58.619Z,71.12
2023-03-19T22:38:26.531Z,70.88
2023-03-19T22:40:56.019Z,71.31
2023-03-19T22:43:34.085Z,71.02
2023-03-19T22:46:08.143Z,71.10
2023-03-19T22:48:37.338Z,71.60
2023-03-19T22:51:06.480Z,72.31
2023-03-19T22:53:37.890Z,72.22
2023-03-19T22:56:06.042Z,72.22
2023-03-19T22:58:33.873Z,72.76
2023-03-19T23:01:02.910Z,72.70
2023-03-19T23:03:31.549Z,72.62
2023-03-19T23:06:05.385Z,72.62
2023-03-19T23:08:33.274Z,72.28
2023-03-19T23:11:01.668Z,72.63
2023-03-19T23:13:29.464Z,73.52
2023-03-19T23:16:00.298Z,74.04
2023-03-19T23:18:33.973Z,74.09
2023-03-19T23:21:03.157Z,74.81
2023-03-19T23:23:31.615Z,75.04
2023-03-19T23:25:59.209Z,75.65
2023-03-19T23:28:32.656Z,75.75
2023-03-19T23:31:05.339Z,75.71
2023-03-19T23:33:33.223Z,75.88
2023-03-19T23:36:00.801Z,75.85
2023-03-19T23:38:28.820Z,75.70
2023-03-19T23:40:56.704Z,75.83
2023-03-19T23:43:27.990Z,76.19
2023-03-19T23:45:56.592Z,76.71
2023-03-19T23:48:38.514Z,76.57
2023-03-19T23:51:06.753Z,76.52
2023-03-19T23:53:38.447Z,76.92
2023-03-19T23:56:22.351Z,77.32
2023-03-19T23:58:52.162Z,77.68
